createdAt,value
2023-03-05T07:11:35.853Z,56.20
2023-03-05T07:14:04.394Z,59.40
2023-03-05T07:16:35.189Z,72.18
2023-03-05T07:19:07.433Z,57.55
2023-03-05T07:21:39.071Z,61.58
2023-03-05T07:24:08.651Z,62.05
2023-03-05T07:26:36.241Z,58.40
2023-03-05T07:29:04.441Z,59.15
2023-03-05T07:31:32.128Z,60.47
2023-03-05T07:34:02.423Z,61.78
2023-03-05T07:36:30.856Z,61.97
2023-03-05T07:38:58.212Z,51.90
2023-03-05T07:41:25.672Z,57.03
2023-03-05T07:43:55.129Z,62.55
2023-03-05T07:46:30.573Z,57.78
2023-03-05T07:48:58.477Z,58.80
2023-03-05T07:51:28.699Z,51.42
2023-03-05T07:53:58.846Z,58.70
2023-03-05T07:56:35.597Z,55.83
2023-03-05T07:59:08.828Z,55.97
2023-03-05T08:01:37.321Z,53.97
2023-03-05T08:04:07.308Z,58.33
2023-03-05T08:06:34.651Z,54.20
2023-03-05T08:09:01.955Z,63.45
2023-03-05T08:11:29.376Z,58.42
2023-03-05T08:13:59.348Z,62.42
2023-03-05T08:16:27.307Z,57.78
2023-03-05T08:18:57.842Z,66.93
2023-03-05T08:24:07.349Z,66.15
2023-03-05T08:26:38.565Z,71.75
2023-03-05T08:29:09.457Z,65.53
2023-03-05T08:31:38.994Z,64.88
2023-03-05T08:34:06.857Z,57.90
2023-03-05T08:36:34.324Z,61.08
2023-03-05T08:39:01.735Z,61.67
2023-03-05T08:41:29.224Z,59.25
2023-03-05T08:43:56.613Z,59.45
2023-03-05T08:46:24.276Z,61.70
2023-03-05T08:48:51.641Z,61.00
2023-03-05T08:51:27.444Z,60.80
2023-03-05T08:53:59.389Z,55.72
2023-03-05T08:56:28.598Z,65.00
2023-03-05T08:58:55.891Z,59.63
2023-03-05T09:01:23.948Z,67.45
2023-03-05T09:03:51.455Z,58.42
2023-03-05T09:06:18.866Z,56.28
2023-03-05T09:08:46.175Z,57.97
2023-03-05T09:11:14.556Z,58.70
2023-03-05T09:13:41.866Z,58.17
2023-03-05T09:16:16.403Z,61.63
2023-03-05T09:18:45.020Z,57.75
2023-03-05T09:21:17.857Z,57.08
2023-03-05T09:23:47.263Z,57.72
2023-03-05T09:26:19.205Z,62.58
2023-03-05T09:28:47.911Z,62.60
2023-03-05T09:31:15.724Z,58.60
2023-03-05T09:33:43.016Z,57.58
2023-03-05T09:36:26.268Z,57.38
2023-03-05T09:38:54.326Z,52.63
2023-03-05T09:42:13.010Z,57.70
2023-03-05T09:45:25.958Z,54.17
2023-03-05T09:48:36.131Z,57.50
2023-03-05T09:51:05.434Z,55.30
2023-03-05T09:54:23.095Z,56.38
2023-03-05T09:56:57.850Z,55.67
2023-03-05T09:59:56.133Z,47.67
2023-03-05T10:02:44.937Z,45.60
2023-03-05T10:05:43.156Z,48.33
2023-03-05T10:08:12.036Z,53.30
2023-03-05T10:10:52.450Z,49.53
2023-03-05T10:13:46.424Z,44.78
2023-03-05T10:17:46.239Z,43.67
2023-03-05T10:20:54.063Z,41.22
2023-03-05T10:24:10.454Z,44.28
2023-03-05T10:27:35.600Z,45.30
2023-03-05T10:31:15.623Z,43.60
2023-03-05T10:34:44.449Z,48.20
2023-03-05T10:38:27.068Z,49.90
2023-03-05T10:40:56.377Z,44.55
2023-03-05T10:43:57.046Z,44.13
2023-03-05T10:46:35.345Z,42.95
2023-03-05T10:49:28.681Z,44.78
2023-03-05T10:52:18.184Z,42.38
2023-03-05T10:54:45.930Z,42.90
2023-03-05T10:57:32.723Z,37.00
2023-03-05T11:00:05.584Z,36.88
2023-03-05T11:02:34.426Z,39.55
2023-03-05T11:05:02.530Z,36.92
2023-03-05T11:07:37.908Z,31.92
2023-03-05T11:10:19.404Z,34.00
2023-03-05T11:12:47.102Z,29.23
2023-03-05T11:15:14.157Z,39.20
2023-03-05T11:18:02.903Z,28.50
2023-03-05T11:20:36.157Z,26.95
2023-03-05T11:23:24.434Z,29.33
2023-03-05T11:26:12.258Z,29.00
2023-03-05T11:28:53.930Z,30.73
2023-03-05T11:31:34.362Z,34.17
2023-03-05T11:34:35.399Z,32.58
2023-03-05T11:37:06.542Z,30.95
2023-03-05T11:39:40.230Z,31.80
2023-03-05T11:42:25.242Z,29.23
2023-03-05T11:44:55.966Z,30.17
2023-03-05T11:47:50.167Z,36.47
2023-03-05T11:50:33.523Z,31.98
2023-03-05T11:53:28.320Z,33.72
2023-03-05T11:56:31.796Z,32.35
2023-03-05T11:59:16.484Z,26.35
2023-03-05T12:01:54.399Z,34.10
2023-03-05T12:04:22.591Z,29.55
2023-03-05T12:07:02.202Z,29.42
2023-03-05T12:09:49.815Z,26.75
2023-03-05T12:13:26.964Z,26.90
2023-03-05T12:16:41.996Z,29.02
2023-03-05T12:19:40.526Z,29.08
2023-03-05T12:22:28.194Z,29.08
2023-03-05T12:25:44.398Z,28.83
2023-03-05T12:28:34.510Z,27.38
2023-03-05T12:31:08.456Z,20.70
2023-03-05T12:33:41.877Z,20.02
2023-03-05T12:36:21.219Z,20.85
2023-03-05T12:38:57.435Z,25.48
2023-03-05T12:41:25.881Z,27.35
2023-03-05T12:44:06.245Z,24.80
2023-03-05T12:46:43.232Z,25.88
2023-03-05T12:49:23.488Z,24.35
2023-03-05T12:51:59.192Z,22.80
2023-03-05T12:54:42.001Z,22.05
2023-03-05T12:57:29.551Z,19.45
2023-03-05T13:00:33.686Z,19.67
2023-03-05T13:03:08.315Z,20.27
2023-03-05T13:05:47.444Z,23.13
2023-03-05T13:08:35.452Z,22.55
2023-03-05T13:11:20.474Z,19.67
2023-03-05T13:13:49.087Z,16.73
2023-03-05T13:16:36.636Z,18.60
2023-03-05T13:19:15.061Z,17.27
2023-03-05T13:21:42.348Z,16.80
2023-03-05T13:24:19.604Z,17.77
2023-03-05T13:26:46.996Z,17.35
2023-03-05T13:29:31.242Z,21.05
2023-03-05T13:32:30.023Z,16.90
2023-03-05T13:35:01.297Z,17.08
2023-03-05T13:37:34.594Z,19.77
2023-03-05T13:40:30.839Z,18.02
2023-03-05T13:43:20.652Z,15.00
2023-03-05T13:45:56.587Z,16.15
2023-03-05T13:48:26.292Z,17.83
2023-03-05T13:50:58.707Z,18.97
2023-03-05T13:53:31.716Z,15.75
2023-03-05T13:56:14.634Z,17.40
2023-03-05T13:58:57.091Z,17.38
2023-03-05T14:01:41.095Z,16.98
2023-03-05T14:04:14.196Z,17.52
2023-03-05T14:06:59.546Z,17.15
2023-03-05T14:09:49.916Z,14.95
2023-03-05T14:12:43.506Z,14.80
2023-03-05T14:15:33.357Z,16.25
2023-03-05T14:18:20.018Z,16.75
2023-03-05T14:21:12.222Z,13.68
2023-03-05T14:23:43.882Z,16.48
2023-03-05T14:26:41.048Z,13.55
2023-03-05T14:29:10.947Z,15.13
2023-03-05T14:32:19.404Z,13.27
2023-03-05T14:34:57.847Z,13.77
2023-03-05T14:37:42.147Z,17.92
2023-03-05T14:40:12.330Z,12.57
2023-03-05T14:43:11.973Z,12.25
2023-03-05T14:45:46.660Z,14.02
2023-03-05T14:48:20.793Z,11.10
2023-03-05T14:50:56.702Z,10.20
2023-03-05T14:53:46.352Z,14.18
2023-03-05T14:56:28.844Z,10.13
2023-03-05T14:58:57.725Z,10.60
2023-03-05T15:01:25.665Z,9.18
2023-03-05T15:03:53.123Z,11.93
2023-03-05T15:06:36.185Z,11.70
2023-03-05T15:09:07.133Z,9.80
2023-03-05T15:11:34.744Z,11.40
2023-03-05T15:14:02.094Z,11.65
2023-03-05T15:16:32.092Z,13.20
2023-03-05T15:18:59.503Z,9.02
2023-03-05T15:21:26.793Z,12.63
2023-03-05T15:23:54.078Z,10.43
2023-03-05T15:26:21.973Z,9.60
2023-03-05T15:28:49.867Z,11.27
2023-03-05T15:31:18.487Z,9.90
2023-03-05T15:33:45.784Z,9.27
2023-03-05T15:36:13.704Z,8.70
2023-03-05T15:38:41.965Z,10.00
2023-03-05T15:41:09.354Z,8.80
2023-03-05T15:43:37.736Z,10.05
2023-03-05T15:46:07.057Z,8.95
2023-03-05T15:48:34.421Z,8.25
2023-03-05T15:51:02.089Z,9.52
2023-03-05T15:53:29.412Z,10.18
2023-03-05T15:55:56.703Z,8.25
2023-03-05T15:58:24.064Z,8.95
2023-03-05T16:00:51.393Z,8.70
2023-03-05T16:03:18.833Z,10.48
2023-03-05T16:05:46.334Z,8.30
2023-03-05T16:08:13.900Z,9.60
2023-03-05T16:10:41.670Z,6.50
2023-03-05T16:13:16.007Z,9.38
2023-03-05T16:15:44.505Z,10.25
2023-03-05T16:18:16.228Z,10.35
2023-03-05T16:20:43.690Z,7.97
2023-03-05T16:23:11.061Z,10.35
2023-03-05T16:25:38.830Z,8.32
2023-03-05T16:28:06.510Z,8.65
2023-03-05T16:30:33.905Z,8.65
2023-03-05T16:33:01.237Z,7.43
2023-03-05T16:35:28.651Z,9.15
2023-03-05T16:37:55.984Z,8.15
2023-03-05T16:40:23.818Z,8.95
2023-03-05T16:42:51.199Z,7.95
2023-03-05T16:45:18.875Z,7.28
2023-03-05T16:47:46.205Z,10.00
2023-03-05T16:50:13.559Z,7.40
2023-03-05T16:52:40.898Z,8.80
2023-03-05T16:55:08.802Z,8.27
2023-03-05T16:57:39.189Z,7.60
2023-03-05T17:00:10.803Z,7.38
2023-03-05T17:02:38.519Z,7.25
2023-03-05T17:05:06.412Z,9.15
2023-03-05T17:07:33.723Z,7.55
2023-03-05T17:10:01.093Z,8.88
2023-03-05T17:12:28.439Z,7.93
2023-03-05T17:14:55.789Z,9.85
2023-03-05T17:17:23.110Z,10.50
2023-03-05T17:19:50.412Z,10.77
2023-03-05T17:22:17.809Z,8.55
2023-03-05T17:24:47.196Z,8.13
2023-03-05T17:27:18.591Z,8.90
2023-03-05T17:29:46.544Z,7.30
2023-03-05T17:32:14.158Z,9.25
2023-03-05T17:34:43.338Z,7.10
2023-03-05T17:37:10.826Z,8.82
2023-03-05T17:39:39.831Z,10.77
2023-03-05T17:42:07.290Z,11.07
2023-03-05T17:44:34.602Z,9.10
2023-03-05T17:47:02.109Z,9.98
2023-03-05T17:49:29.585Z,10.13
2023-03-05T17:51:57.130Z,10.80
2023-03-05T17:54:24.456Z,11.50
2023-03-05T17:56:58.093Z,13.20
2023-03-05T17:59:26.358Z,10.93
2023-03-05T18:01:53.669Z,10.88
2023-03-05T18:04:21.596Z,11.23
2023-03-05T18:06:49.051Z,11.15
2023-03-05T18:09:16.383Z,12.25
2023-03-05T18:11:43.673Z,14.20
2023-03-05T18:14:10.965Z,10.13
2023-03-05T18:16:38.321Z,12.02
2023-03-05T18:19:05.704Z,11.68
2023-03-05T18:21:33.002Z,10.68
2023-03-05T18:24:00.341Z,12.95
2023-03-05T18:26:27.686Z,11.48
2023-03-05T18:28:54.989Z,11.45
2023-03-05T18:31:23.308Z,10.98
2023-03-05T18:33:51.004Z,12.30
2023-03-05T18:36:18.733Z,14.80
2023-03-05T18:38:46.047Z,11.95
2023-03-05T18:41:27.828Z,12.52
2023-03-05T18:43:55.553Z,14.13
2023-03-05T18:46:23.044Z,12.85
2023-03-05T18:48:50.553Z,14.23
2023-03-05T18:51:21.687Z,13.38
2023-03-05T18:53:51.147Z,11.77
2023-03-05T18:56:18.521Z,13.48
2023-03-05T18:58:46.524Z,14.40
2023-03-05T19:01:17.503Z,12.27
2023-03-05T19:03:47.278Z,14.73
2023-03-05T19:06:15.070Z,12.37
2023-03-05T19:08:42.353Z,12.15
2023-03-05T19:11:20.548Z,13.43
2023-03-05T19:13:50.879Z,15.40
2023-03-05T19:16:29.151Z,14.77
2023-03-05T19:19:15.427Z,17.92
2023-03-05T19:21:53.361Z,15.68
2023-03-05T19:24:25.205Z,16.88
2023-03-05T19:26:55.385Z,16.20
2023-03-05T19:29:32.934Z,16.10
2023-03-05T19:32:00.594Z,13.20
2023-03-05T19:34:27.991Z,13.23
2023-03-05T19:36:55.337Z,12.73
2023-03-05T19:39:22.706Z,19.75
2023-03-05T19:41:50.223Z,15.80
2023-03-05T19:44:19.303Z,16.92
2023-03-05T19:46:48.926Z,17.63
2023-03-05T19:49:18.542Z,18.35
2023-03-05T19:51:47.449Z,16.63
2023-03-05T19:54:18.898Z,13.73
2023-03-05T19:56:48.659Z,12.82
2023-03-05T19:59:20.588Z,16.77
2023-03-05T20:01:49.524Z,16.20
2023-03-05T20:04:23.856Z,22.23
2023-03-05T20:06:51.438Z,21.90
2023-03-05T20:09:19.100Z,21.02
2023-03-05T20:11:47.296Z,18.00
2023-03-05T20:14:14.762Z,15.60
2023-03-05T20:16:43.467Z,15.70
2023-03-05T20:19:18.400Z,19.48
2023-03-05T20:21:45.980Z,18.38
2023-03-05T20:24:20.072Z,16.25
2023-03-05T20:26:48.547Z,18.77
2023-03-05T20:29:18.346Z,15.73
2023-03-05T20:31:47.998Z,16.77
2023-03-05T20:34:19.763Z,16.93
2023-03-05T20:36:47.846Z,18.27
2023-03-05T20:39:15.721Z,17.27
2023-03-05T20:41:43.037Z,15.60
2023-03-05T20:44:13.996Z,15.63
2023-03-05T20:46:49.605Z,16.25
2023-03-05T20:49:17.592Z,18.98
2023-03-05T20:51:50.129Z,19.38
2023-03-05T20:54:17.923Z,20.02
2023-03-05T20:56:45.246Z,17.75
2023-03-05T20:59:12.616Z,16.85
2023-03-05T21:01:40.982Z,16.02
2023-03-05T21:04:09.046Z,14.73
2023-03-05T21:06:37.131Z,15.07
2023-03-05T21:09:05.044Z,16.98
2023-03-05T21:11:33.931Z,15.48
2023-03-05T21:14:01.253Z,17.60
2023-03-05T21:16:28.929Z,16.55
2023-03-05T21:18:57.355Z,14.98
2023-03-05T21:21:25.714Z,15.43
2023-03-05T21:23:53.588Z,17.65
2023-03-05T21:26:21.082Z,17.65
2023-03-05T21:28:48.754Z,16.23
2023-03-05T21:31:21.954Z,15.68
2023-03-05T21:33:49.690Z,16.27
2023-03-05T21:36:19.171Z,16.05
2023-03-05T21:38:48.672Z,15.70
2023-03-05T21:41:18.103Z,16.13
2023-03-05T21:43:45.521Z,14.30
2023-03-05T21:46:14.064Z,18.55
2023-03-05T21:48:41.373Z,15.70
2023-03-05T21:51:11.488Z,18.50
2023-03-05T21:53:38.840Z,13.57
2023-03-05T21:56:17.122Z,16.83
2023-03-05T21:58:45.314Z,15.52
2023-03-05T22:01:14.765Z,18.42
2023-03-05T22:03:42.140Z,15.23
2023-03-05T22:06:16.155Z,12.93
2023-03-05T22:08:43.653Z,16.23
2023-03-05T22:11:16.419Z,14.90
2023-03-05T22:13:44.264Z,17.23
2023-03-05T22:16:19.926Z,14.52
2023-03-05T22:18:47.231Z,16.33
2023-03-05T22:21:28.019Z,15.77
2023-03-05T22:23:57.447Z,13.63
2023-03-05T22:26:34.624Z,16.40
2023-03-05T22:29:03.780Z,15.20
2023-03-05T22:31:31.663Z,16.17
2023-03-05T22:33:59.171Z,14.38
2023-03-05T22:36:26.696Z,14.15
